Terminal Aerodrome Forecast
Issued by NWS

Home | Current Version | Previous Version | Text Only | Print | Product List | Glossary On
Versions: 1 2 3 4 5 6 7 8 9 10 11 12 13 14 15 16 17 18 19 20 21
876
FTUS43 KAPX 060520
TAFTVC
TAF
KTVC 060520Z 0606/0706 16007KT P6SM SCT020
      TEMPO 0606/0609 BKN020
     FM060900 16007KT P6SM BKN015
     FM061200 16009KT P6SM BKN060
     FM062100 21011KT P6SM BKN020
     FM070000 22010KT P6SM BKN015
     FM070400 25012G27KT P6SM BKN015=

USA.gov is the U.S. government's official web portal to all federal, state and local government web resources and services.